createdAt,value
2022-09-01T00:00:34.935Z,5.30
2022-09-01T00:03:39.203Z,5.00
2022-09-01T00:06:41.114Z,5.00
2022-09-01T00:09:42.944Z,4.80
2022-09-01T00:12:45.744Z,5.00
2022-09-01T00:15:47.723Z,4.50
2022-09-01T00:18:51.777Z,5.20
2022-09-01T00:21:53.668Z,4.90
2022-09-01T00:24:55.676Z,4.80
2022-09-01T00:28:00.452Z,4.70
2022-09-01T00:31:03.228Z,4.90
2022-09-01T00:34:05.390Z,5.00
2022-09-01T00:37:07.708Z,4.60
2022-09-01T00:40:11.819Z,5.10
2022-09-01T00:43:24.847Z,4.80
2022-09-01T00:46:30.225Z,4.50
2022-09-01T00:49:42.458Z,4.30
2022-09-01T00:52:53.039Z,4.70
2022-09-01T00:55:54.847Z,4.40
2022-09-01T00:58:57.081Z,5.10
2022-09-01T01:01:59.483Z,4.80
2022-09-01T01:05:03.264Z,5.10
2022-09-01T01:08:08.266Z,4.90
2022-09-01T01:11:18.093Z,5.30
2022-09-01T01:14:20.225Z,4.80
2022-09-01T01:17:23.211Z,4.90
2022-09-01T01:20:47.021Z,5.00
2022-09-01T01:23:58.216Z,4.60
2022-09-01T01:27:00.966Z,4.80
2022-09-01T01:30:04.514Z,4.90
2022-09-01T01:33:11.544Z,4.90
2022-09-01T01:36:19.970Z,4.70
2022-09-01T01:39:27.626Z,5.30
2022-09-01T01:42:29.623Z,5.50
2022-09-01T01:45:31.305Z,5.50
2022-09-01T01:48:34.906Z,5.50
2022-09-01T01:51:37.166Z,5.00
2022-09-01T01:54:39.110Z,4.60
2022-09-01T01:57:49.981Z,4.40
2022-09-01T02:00:54.461Z,4.40
2022-09-01T02:03:57.777Z,4.40
2022-09-01T02:07:02.150Z,4.40
2022-09-01T02:10:04.137Z,5.10
2022-09-01T02:13:07.724Z,4.30
2022-09-01T02:16:12.942Z,4.70
2022-09-01T02:19:21.133Z,5.20
2022-09-01T02:22:22.938Z,5.10
2022-09-01T02:25:24.803Z,5.20
2022-09-01T02:28:28.598Z,5.30
2022-09-01T02:31:41.836Z,4.60
2022-09-01T02:34:43.748Z,5.50
2022-09-01T02:37:46.477Z,5.50
2022-09-01T02:40:48.938Z,5.60
2022-09-01T02:43:51.164Z,6.10
2022-09-01T02:46:53.393Z,5.80
2022-09-01T02:49:55.550Z,6.00
2022-09-01T02:53:00.800Z,6.50
2022-09-01T02:56:09.688Z,6.20
2022-09-01T02:59:13.141Z,6.20
2022-09-01T03:02:14.942Z,6.10
2022-09-01T03:05:17.566Z,5.50
2022-09-01T03:08:19.329Z,5.60
2022-09-01T03:11:23.939Z,4.90
2022-09-01T03:14:26.232Z,4.80
2022-09-01T03:17:28.156Z,5.10
2022-09-01T03:20:34.153Z,5.20
2022-09-01T03:23:38.105Z,5.70
2022-09-01T03:26:40.657Z,5.90
2022-09-01T03:29:42.405Z,5.90
2022-09-01T03:32:45.301Z,5.60
2022-09-01T03:35:47.827Z,5.30
2022-09-01T03:38:51.534Z,5.90
2022-09-01T03:41:54.170Z,5.30
2022-09-01T03:44:56.832Z,5.40
2022-09-01T03:47:58.724Z,5.80
2022-09-01T03:51:02.940Z,5.80
2022-09-01T03:54:05.219Z,5.60
2022-09-01T03:57:06.947Z,5.90
2022-09-01T04:00:20.407Z,6.10
2022-09-01T04:03:28.899Z,6.50
2022-09-01T04:06:31.309Z,6.80
2022-09-01T04:09:35.382Z,6.20
2022-09-01T04:12:37.980Z,4.70
2022-09-01T04:15:39.717Z,4.30
2022-09-01T04:18:41.742Z,4.80
2022-09-01T04:21:44.178Z,5.00
2022-09-01T04:24:46.979Z,5.40
2022-09-01T04:27:55.648Z,5.00
2022-09-01T04:30:58.734Z,5.70
2022-09-01T04:34:02.185Z,5.40
2022-09-01T04:37:15.447Z,5.30
2022-09-01T04:40:18.829Z,5.60
2022-09-01T04:43:20.693Z,5.60
2022-09-01T04:46:22.998Z,5.70
2022-09-01T04:49:26.460Z,7.20
2022-09-01T04:52:28.291Z,6.40
2022-09-01T04:55:30.564Z,6.90
2022-09-01T04:58:32.666Z,5.40
2022-09-01T05:01:45.365Z,6.00
2022-09-01T05:04:47.498Z,5.70
2022-09-01T05:07:55.638Z,5.40
2022-09-01T05:10:57.638Z,5.40
2022-09-01T05:13:59.276Z,6.00
2022-09-01T05:17:04.493Z,5.20
2022-09-01T05:20:07.001Z,6.10
2022-09-01T05:23:12.764Z,6.10
2022-09-01T05:26:25.105Z,6.70
2022-09-01T05:29:27.830Z,7.10
2022-09-01T05:32:30.567Z,7.40
2022-09-01T05:35:32.403Z,7.10
2022-09-01T05:38:35.402Z,6.70
2022-09-01T05:41:37.436Z,5.60
2022-09-01T05:44:44.331Z,5.80
2022-09-01T05:47:46.838Z,6.40
2022-09-01T05:50:49.797Z,5.80
2022-09-01T05:53:58.985Z,6.00
2022-09-01T05:57:17.370Z,5.60
2022-09-01T06:00:23.067Z,5.60
2022-09-01T06:03:27.912Z,5.10
2022-09-01T06:06:54.983Z,5.50
2022-09-01T06:10:00.897Z,5.20
2022-09-01T06:13:03.293Z,4.90
2022-09-01T06:16:05.883Z,4.70
2022-09-01T06:19:07.595Z,4.50
2022-09-01T06:22:10.758Z,4.70
2022-09-01T06:25:12.577Z,4.30
2022-09-01T06:28:15.074Z,4.00
2022-09-01T06:31:17.678Z,4.10
2022-09-01T06:34:20.310Z,4.00
2022-09-01T06:37:22.987Z,3.90
2022-09-01T06:40:25.608Z,3.50
2022-09-01T06:43:30.651Z,3.20
2022-09-01T06:46:33.242Z,3.20
2022-09-01T06:49:36.807Z,3.40
2022-09-01T06:56:03.023Z,3.00
2022-09-01T06:59:06.181Z,3.40
2022-09-01T07:02:13.954Z,3.20
2022-09-01T07:12:08.829Z,3.40
2022-09-01T07:18:58.439Z,3.00
2022-09-01T07:22:07.955Z,3.00
2022-09-01T07:28:37.760Z,2.80
2022-09-01T07:31:51.746Z,3.00
2022-09-01T07:35:11.721Z,3.20
2022-09-01T07:42:55.516Z,2.80
2022-09-01T07:51:51.886Z,2.60
2022-09-01T07:54:53.793Z,2.70
2022-09-01T07:57:55.606Z,2.80
2022-09-01T08:00:57.525Z,2.90
2022-09-01T08:04:02.167Z,2.70
2022-09-01T08:07:05.799Z,2.50
2022-09-01T08:10:08.703Z,2.80
2022-09-01T08:13:15.214Z,2.90
2022-09-01T08:16:18.086Z,3.00
2022-09-01T08:19:20.391Z,3.00
2022-09-01T08:22:24.311Z,2.80
2022-09-01T08:25:26.407Z,2.30
2022-09-01T08:28:28.748Z,2.60
2022-09-01T08:31:31.238Z,2.80
2022-09-01T08:34:34.341Z,2.70
2022-09-01T08:37:36.527Z,2.70
2022-09-01T08:40:39.218Z,2.60
2022-09-01T08:43:57.083Z,2.30
2022-09-01T08:47:03.036Z,2.30
2022-09-01T08:50:06.354Z,2.20
2022-09-01T08:53:54.246Z,2.20
2022-09-01T08:57:06.220Z,2.10
2022-09-01T09:00:12.689Z,2.10
2022-09-01T09:03:23.757Z,1.80
2022-09-01T09:06:33.740Z,2.00
2022-09-01T09:09:53.065Z,2.10
2022-09-01T09:13:03.446Z,2.00
2022-09-01T09:19:41.011Z,2.10
2022-09-01T09:22:43.374Z,2.30
2022-09-01T09:25:45.078Z,2.20
2022-09-01T09:28:50.147Z,2.30
2022-09-01T09:32:06.690Z,2.00
2022-09-01T09:35:19.217Z,1.80
2022-09-01T09:38:33.819Z,1.80
2022-09-01T09:41:38.267Z,1.70
2022-09-01T09:44:51.250Z,1.70
2022-09-01T09:47:55.360Z,1.90
2022-09-01T09:51:16.570Z,2.00
2022-09-01T09:54:27.793Z,2.00
2022-09-01T09:57:30.577Z,1.90
2022-09-01T10:00:34.642Z,2.10
2022-09-01T10:03:44.657Z,1.90
2022-09-01T10:06:47.151Z,1.80
2022-09-01T10:09:49.880Z,1.70
2022-09-01T10:12:53.746Z,2.50
2022-09-01T10:16:01.045Z,1.80
2022-09-01T10:22:15.178Z,1.80
2022-09-01T10:25:20.979Z,2.40
2022-09-01T10:28:24.715Z,2.10
2022-09-01T10:31:32.389Z,2.20
2022-09-01T10:34:37.502Z,2.10
2022-09-01T10:37:41.320Z,2.00
2022-09-01T10:40:50.720Z,2.00
2022-09-01T10:43:52.666Z,1.90
2022-09-01T10:46:59.835Z,1.70
2022-09-01T10:50:23.414Z,1.50
2022-09-01T10:53:52.038Z,1.50
2022-09-01T10:56:54.009Z,1.80
2022-09-01T10:59:58.435Z,1.60
2022-09-01T11:07:33.556Z,1.60
2022-09-01T11:10:32.474Z,1.60
2022-09-01T11:13:49.919Z,1.40
2022-09-01T11:17:12.625Z,1.80
2022-09-01T11:20:34.800Z,1.60
2022-09-01T11:23:36.743Z,1.60
2022-09-01T11:26:47.573Z,1.70
2022-09-01T11:29:56.948Z,1.70
2022-09-01T11:33:12.218Z,1.80
2022-09-01T11:36:22.237Z,2.10
2022-09-01T11:39:31.798Z,1.90
2022-09-01T11:42:40.392Z,2.30
2022-09-01T11:45:59.752Z,2.20
2022-09-01T11:49:09.396Z,2.30
2022-09-01T11:52:15.640Z,2.50
2022-09-01T11:55:31.911Z,1.90
2022-09-01T11:58:39.296Z,2.20
2022-09-01T12:01:41.610Z,2.00
2022-09-01T12:04:44.356Z,9.10
2022-09-01T12:07:47.646Z,2.50
2022-09-01T12:10:50.043Z,2.20
2022-09-01T12:14:01.127Z,2.30
2022-09-01T12:17:06.791Z,1.70
2022-09-01T12:20:23.372Z,2.30
2022-09-01T12:23:46.090Z,2.30
2022-09-01T12:26:49.845Z,2.40
2022-09-01T12:29:52.003Z,2.20
2022-09-01T12:33:22.898Z,1.80
2022-09-01T12:36:36.965Z,1.90
2022-09-01T12:39:44.798Z,2.20
2022-09-01T12:42:51.432Z,1.70
2022-09-01T12:45:53.302Z,1.90
2022-09-01T12:48:55.684Z,2.00
2022-09-01T12:52:27.933Z,2.20
2022-09-01T12:55:50.790Z,2.40
2022-09-01T12:59:16.046Z,1.80
2022-09-01T13:02:28.379Z,2.00
2022-09-01T13:08:44.059Z,2.10
2022-09-01T13:12:06.577Z,1.80
2022-09-01T13:15:10.209Z,1.80
2022-09-01T13:18:12.215Z,1.90
2022-09-01T13:21:14.649Z,1.90
2022-09-01T13:24:16.341Z,2.00
2022-09-01T13:27:21.837Z,1.80
2022-09-01T13:30:28.524Z,2.00
2022-09-01T13:34:08.657Z,2.10
2022-09-01T13:36:52.961Z,1.80
2022-09-01T13:39:54.874Z,1.90
2022-09-01T13:42:56.650Z,2.00
2022-09-01T13:45:59.057Z,2.00
2022-09-01T13:49:41.117Z,1.90
2022-09-01T13:52:25.628Z,2.20
2022-09-01T13:55:29.837Z,2.10
2022-09-01T13:58:31.773Z,1.80
2022-09-01T14:01:33.667Z,2.00
2022-09-01T14:04:35.429Z,1.70
2022-09-01T14:07:37.996Z,1.70
2022-09-01T14:10:43.544Z,2.20
2022-09-01T14:13:46.394Z,2.00
2022-09-01T14:16:48.880Z,1.80
2022-09-01T14:19:51.120Z,2.40
2022-09-01T14:22:53.086Z,2.10
2022-09-01T14:25:55.047Z,2.00
2022-09-01T14:28:56.837Z,2.10
2022-09-01T14:31:59.452Z,1.40
2022-09-01T14:35:01.820Z,1.50
2022-09-01T14:38:06.122Z,1.80
2022-09-01T14:41:07.973Z,2.80
2022-09-01T14:44:09.893Z,2.30
2022-09-01T14:47:12.512Z,2.90
2022-09-01T14:50:23.222Z,1.80
2022-09-01T14:53:25.487Z,2.20
2022-09-01T14:56:27.291Z,1.60
2022-09-01T14:59:29.012Z,2.10
2022-09-01T15:02:32.113Z,1.80
2022-09-01T15:05:39.839Z,3.80
2022-09-01T15:08:42.634Z,2.80
2022-09-01T15:11:44.532Z,2.20
2022-09-01T15:14:47.466Z,2.40
2022-09-01T15:17:49.848Z,2.20
2022-09-01T15:20:53.987Z,2.50
2022-09-01T15:23:56.761Z,2.50
2022-09-01T15:26:58.553Z,2.70
2022-09-01T15:30:00.312Z,2.10
2022-09-01T15:33:02.483Z,2.40
2022-09-01T15:36:04.394Z,2.30
2022-09-01T15:39:08.281Z,2.10
2022-09-01T15:42:10.086Z,2.40
2022-09-01T15:45:18.134Z,1.70
2022-09-01T15:48:20.038Z,1.70
2022-09-01T15:51:29.459Z,1.80
2022-09-01T15:54:37.678Z,1.90
2022-09-01T15:57:39.318Z,2.30
2022-09-01T16:00:42.754Z,2.20
2022-09-01T16:03:44.509Z,2.30
2022-09-01T16:06:46.252Z,2.20
2022-09-01T16:09:48.261Z,2.80
2022-09-01T16:12:52.054Z,2.70
2022-09-01T16:16:09.567Z,3.00
2022-09-01T16:19:33.200Z,3.00
2022-09-01T16:22:38.070Z,2.80
2022-09-01T16:25:40.220Z,2.90
2022-09-01T16:28:45.471Z,2.60
2022-09-01T16:31:51.527Z,2.50
2022-09-01T16:34:53.410Z,2.50
2022-09-01T16:38:23.126Z,2.50
2022-09-01T16:41:44.571Z,2.50
2022-09-01T16:45:11.540Z,2.80
2022-09-01T16:48:41.485Z,2.60
2022-09-01T16:52:10.131Z,2.50
2022-09-01T16:55:25.548Z,2.50
2022-09-01T16:58:33.005Z,2.10
2022-09-01T17:01:49.363Z,2.40
2022-09-01T17:05:01.640Z,2.40
2022-09-01T17:08:10.869Z,2.50
2022-09-01T17:11:27.736Z,2.60
2022-09-01T17:14:38.160Z,2.40
2022-09-01T17:17:51.381Z,2.50
2022-09-01T17:20:58.170Z,2.60
2022-09-01T17:24:16.734Z,2.50
2022-09-01T17:27:24.785Z,3.10
2022-09-01T17:30:27.164Z,3.10
2022-09-01T17:34:07.880Z,3.20
2022-09-01T17:37:29.049Z,3.50
2022-09-01T17:40:53.118Z,3.80
2022-09-01T17:44:07.295Z,3.30
2022-09-01T17:47:35.015Z,3.10
2022-09-01T17:54:35.236Z,3.00
2022-09-01T17:57:51.032Z,3.10
2022-09-01T18:01:30.146Z,3.30
2022-09-01T18:04:54.018Z,2.80
2022-09-01T18:08:23.325Z,2.90
2022-09-01T18:11:37.473Z,3.30
2022-09-01T18:14:43.161Z,2.90
2022-09-01T18:17:49.699Z,2.70
2022-09-01T18:20:57.121Z,2.90
2022-09-01T18:24:07.410Z,3.00
2022-09-01T18:27:09.381Z,3.30
2022-09-01T18:30:11.676Z,3.20
2022-09-01T18:33:29.102Z,3.20
2022-09-01T18:36:39.787Z,3.10
2022-09-01T18:40:16.358Z,3.10
2022-09-01T18:43:23.114Z,3.70
2022-09-01T18:46:34.491Z,3.60
2022-09-01T18:49:52.341Z,3.60
2022-09-01T18:53:17.483Z,4.00
2022-09-01T18:56:42.809Z,4.00
2022-09-01T19:00:04.692Z,3.40
2022-09-01T19:03:16.652Z,3.40
2022-09-01T19:06:31.594Z,3.40
2022-09-01T19:09:39.977Z,3.40
2022-09-01T19:13:09.887Z,3.70
2022-09-01T19:16:24.690Z,3.60
2022-09-01T19:19:37.264Z,3.60
2022-09-01T19:22:51.270Z,3.90
2022-09-01T19:25:58.738Z,3.60
2022-09-01T19:29:05.947Z,3.50
2022-09-01T19:32:10.106Z,3.90
2022-09-01T19:35:16.913Z,3.70
2022-09-01T19:38:27.486Z,4.50
2022-09-01T19:41:35.480Z,5.00
2022-09-01T19:44:58.994Z,4.70
2022-09-01T19:48:14.986Z,4.90
2022-09-01T19:51:38.623Z,5.30
2022-09-01T19:54:52.746Z,4.60
2022-09-01T19:58:07.567Z,5.80
2022-09-01T20:01:17.093Z,5.20
2022-09-01T20:04:53.623Z,4.80
2022-09-01T20:08:25.494Z,5.20
2022-09-01T20:11:47.849Z,4.80
2022-09-01T20:15:04.578Z,4.50
2022-09-01T20:18:10.798Z,5.10
2022-09-01T20:21:20.876Z,4.80
2022-09-01T20:24:35.053Z,5.20
2022-09-01T20:27:37.238Z,5.10
2022-09-01T20:30:48.204Z,4.80
2022-09-01T20:34:00.737Z,4.80
2022-09-01T20:37:08.821Z,4.20
2022-09-01T20:40:17.109Z,5.40
2022-09-01T20:43:26.093Z,4.80
2022-09-01T20:46:28.598Z,4.50
2022-09-01T20:49:32.216Z,5.00
2022-09-01T20:52:49.158Z,4.80
2022-09-01T20:55:56.057Z,5.70
2022-09-01T20:59:01.412Z,6.30
2022-09-01T21:02:07.993Z,6.00
2022-09-01T21:05:12.797Z,6.20
2022-09-01T21:08:26.479Z,5.70
2022-09-01T21:11:47.529Z,6.00
2022-09-01T21:14:59.506Z,6.00
2022-09-01T21:18:19.621Z,5.50
2022-09-01T21:21:37.883Z,6.20
2022-09-01T21:24:42.205Z,5.90
2022-09-01T21:27:51.482Z,5.70
2022-09-01T21:30:55.173Z,5.30
2022-09-01T21:33:57.002Z,5.00
2022-09-01T21:36:59.002Z,5.20
2022-09-01T21:40:00.739Z,5.60
2022-09-01T21:43:08.522Z,5.80
2022-09-01T21:46:10.944Z,5.30
2022-09-01T21:49:14.535Z,4.70
2022-09-01T21:52:16.650Z,5.50
2022-09-01T21:55:22.726Z,5.10
2022-09-01T21:58:25.005Z,5.20
2022-09-01T22:01:33.803Z,5.00
2022-09-01T22:04:37.182Z,4.60
2022-09-01T22:07:40.510Z,4.50
2022-09-01T22:10:46.109Z,4.40
2022-09-01T22:13:49.610Z,4.60
2022-09-01T22:16:51.884Z,4.90
2022-09-01T22:19:53.782Z,4.40
2022-09-01T22:23:01.964Z,4.50
2022-09-01T22:26:04.289Z,4.60
2022-09-01T22:29:07.704Z,4.20
2022-09-01T22:32:09.767Z,4.10
2022-09-01T22:35:14.045Z,4.40
2022-09-01T22:38:17.093Z,5.10
2022-09-01T22:41:23.275Z,4.60
2022-09-01T22:44:25.198Z,4.60
2022-09-01T22:47:26.974Z,4.70
2022-09-01T22:50:28.711Z,4.50
2022-09-01T22:53:31.177Z,4.10
2022-09-01T22:56:35.105Z,4.40
2022-09-01T22:59:36.891Z,4.20
2022-09-01T23:02:39.411Z,4.00
2022-09-01T23:06:11.361Z,4.70
2022-09-01T23:09:13.962Z,4.00
2022-09-01T23:12:15.702Z,4.10
2022-09-01T23:15:17.906Z,4.40
2022-09-01T23:18:19.706Z,4.00
2022-09-01T23:21:26.766Z,4.20
2022-09-01T23:24:28.662Z,4.20
2022-09-01T23:27:32.394Z,4.20
2022-09-01T23:30:34.838Z,4.20
2022-09-01T23:33:37.041Z,4.40
2022-09-01T23:36:39.289Z,4.70
2022-09-01T23:39:41.283Z,4.30
2022-09-01T23:42:43.004Z,4.40
2022-09-01T23:48:47.626Z,4.20
2022-09-01T23:51:49.569Z,4.60
2022-09-01T23:54:51.506Z,4.30
2022-09-01T23:57:53.179Z,4.30
